sensor_id;sensor_type;location;lat;lon;timestamp;P1;durP1;ratioP1;P2;durP2;ratioP2
54517;SDS011;40423;53.176;6.002;2023-04-24T00:00:00;8.82;;;6.88;;
54517;SDS011;40423;53.176;6.002;2023-04-24T00:02:30;8.82;;;5.78;;
54517;SDS011;40423;53.176;6.002;2023-04-24T00:04:57;8.52;;;5.78;;
54517;SDS011;40423;53.176;6.002;2023-04-24T00:07:28;7.88;;;5.60;;
54517;SDS011;40423;53.176;6.002;2023-04-24T00:09:54;11.00;;;7.00;;
54517;SDS011;40423;53.176;6.002;2023-04-24T00:12:20;7.20;;;6.50;;
54517;SDS011;40423;53.176;6.002;2023-04-24T00:14:46;8.38;;;7.47;;
54517;SDS011;40423;53.176;6.002;2023-04-24T00:17:11;8.82;;;5.70;;
54517;SDS011;40423;53.176;6.002;2023-04-24T00:19:37;8.23;;;6.38;;
54517;SDS011;40423;53.176;6.002;2023-04-24T00:22:03;10.25;;;7.18;;
54517;SDS011;40423;53.176;6.002;2023-04-24T00:24:29;6.88;;;6.22;;
54517;SDS011;40423;53.176;6.002;2023-04-24T00:26:55;9.57;;;6.28;;
54517;SDS011;40423;53.176;6.002;2023-04-24T00:29:21;6.32;;;5.72;;
54517;SDS011;40423;53.176;6.002;2023-04-24T00:31:47;7.53;;;5.90;;
54517;SDS011;40423;53.176;6.002;2023-04-24T00:34:13;5.70;;;4.97;;
54517;SDS011;40423;53.176;6.002;2023-04-24T00:36:39;5.97;;;4.53;;
54517;SDS011;40423;53.176;6.002;2023-04-24T00:39:05;5.50;;;5.00;;
54517;SDS011;40423;53.176;6.002;2023-04-24T00:41:33;9.80;;;6.28;;
54517;SDS011;40423;53.176;6.002;2023-04-24T00:44:00;7.82;;;5.72;;
54517;SDS011;40423;53.176;6.002;2023-04-24T00:46:26;6.30;;;5.70;;
54517;SDS011;40423;53.176;6.002;2023-04-24T00:48:52;14.02;;;5.30;;
54517;SDS011;40423;53.176;6.002;2023-04-24T00:51:17;8.45;;;5.25;;
54517;SDS011;40423;53.176;6.002;2023-04-24T00:53:43;6.20;;;5.60;;
54517;SDS011;40423;53.176;6.002;2023-04-24T00:56:09;9.30;;;5.65;;
54517;SDS011;40423;53.176;6.002;2023-04-24T00:58:35;5.47;;;4.93;;
54517;SDS011;40423;53.176;6.002;2023-04-24T01:01:01;6.43;;;5.53;;
54517;SDS011;40423;53.176;6.002;2023-04-24T01:03:29;6.60;;;4.82;;
54517;SDS011;40423;53.176;6.002;2023-04-24T01:05:56;7.85;;;5.78;;
54517;SDS011;40423;53.176;6.002;2023-04-24T01:08:23;6.68;;;5.65;;
54517;SDS011;40423;53.176;6.002;2023-04-24T01:10:53;7.45;;;5.47;;
54517;SDS011;40423;53.176;6.002;2023-04-24T01:13:20;7.60;;;5.90;;
54517;SDS011;40423;53.176;6.002;2023-04-24T01:15:46;6.07;;;5.07;;
54517;SDS011;40423;53.176;6.002;2023-04-24T01:18:13;6.72;;;5.50;;
54517;SDS011;40423;53.176;6.002;2023-04-24T01:20:42;6.47;;;5.10;;
54517;SDS011;40423;53.176;6.002;2023-04-24T01:23:10;6.55;;;5.07;;
54517;SDS011;40423;53.176;6.002;2023-04-24T01:25:36;5.82;;;5.22;;
54517;SDS011;40423;53.176;6.002;2023-04-24T01:28:02;5.88;;;5.28;;
54517;SDS011;40423;53.176;6.002;2023-04-24T01:30:28;6.15;;;5.30;;
54517;SDS011;40423;53.176;6.002;2023-04-24T01:32:55;6.72;;;6.03;;
54517;SDS011;40423;53.176;6.002;2023-04-24T01:35:21;6.03;;;5.30;;
54517;SDS011;40423;53.176;6.002;2023-04-24T01:37:46;7.60;;;6.07;;
54517;SDS011;40423;53.176;6.002;2023-04-24T01:40:12;6.70;;;6.05;;
54517;SDS011;40423;53.176;6.002;2023-04-24T01:42:38;7.25;;;5.85;;
54517;SDS011;40423;53.176;6.002;2023-04-24T01:45:06;6.68;;;5.93;;
54517;SDS011;40423;53.176;6.002;2023-04-24T01:47:35;7.25;;;5.43;;
54517;SDS011;40423;53.176;6.002;2023-04-24T01:50:02;8.20;;;6.38;;
54517;SDS011;40423;53.176;6.002;2023-04-24T01:52:29;6.75;;;5.18;;
54517;SDS011;40423;53.176;6.002;2023-04-24T01:54:56;7.32;;;5.57;;
54517;SDS011;40423;53.176;6.002;2023-04-24T01:57:24;6.78;;;6.07;;
54517;SDS011;40423;53.176;6.002;2023-04-24T01:59:51;7.78;;;6.00;;
54517;SDS011;40423;53.176;6.002;2023-04-24T02:02:16;11.80;;;6.93;;
54517;SDS011;40423;53.176;6.002;2023-04-24T02:04:42;7.43;;;6.05;;
54517;SDS011;40423;53.176;6.002;2023-04-24T02:07:08;7.90;;;6.25;;
54517;SDS011;40423;53.176;6.002;2023-04-24T02:09:34;6.85;;;5.85;;
54517;SDS011;40423;53.176;6.002;2023-04-24T02:11:59;6.60;;;5.40;;
54517;SDS011;40423;53.176;6.002;2023-04-24T02:14:25;7.85;;;6.10;;
54517;SDS011;40423;53.176;6.002;2023-04-24T02:16:51;7.25;;;6.20;;
54517;SDS011;40423;53.176;6.002;2023-04-24T02:19:18;7.38;;;5.85;;
54517;SDS011;40423;53.176;6.002;2023-04-24T02:21:44;8.98;;;6.97;;
54517;SDS011;40423;53.176;6.002;2023-04-24T02:24:10;7.53;;;6.35;;
54517;SDS011;40423;53.176;6.002;2023-04-24T02:26:36;6.97;;;6.25;;
54517;SDS011;40423;53.176;6.002;2023-04-24T02:29:01;9.73;;;7.32;;
54517;SDS011;40423;53.176;6.002;2023-04-24T02:31:27;8.30;;;6.75;;
54517;SDS011;40423;53.176;6.002;2023-04-24T02:33:53;8.45;;;7.55;;
54517;SDS011;40423;53.176;6.002;2023-04-24T02:36:18;6.97;;;6.28;;
54517;SDS011;40423;53.176;6.002;2023-04-24T02:38:44;7.70;;;6.18;;
54517;SDS011;40423;53.176;6.002;2023-04-24T02:41:10;8.02;;;6.80;;
54517;SDS011;40423;53.176;6.002;2023-04-24T02:43:36;7.80;;;7.05;;
54517;SDS011;40423;53.176;6.002;2023-04-24T02:46:02;8.95;;;7.47;;
54517;SDS011;40423;53.176;6.002;2023-04-24T02:48:27;7.93;;;6.82;;
54517;SDS011;40423;53.176;6.002;2023-04-24T02:50:53;7.03;;;6.30;;
54517;SDS011;40423;53.176;6.002;2023-04-24T02:53:19;7.80;;;6.65;;
54517;SDS011;40423;53.176;6.002;2023-04-24T02:55:45;8.77;;;7.80;;
54517;SDS011;40423;53.176;6.002;2023-04-24T02:58:11;8.52;;;7.43;;
54517;SDS011;40423;53.176;6.002;2023-04-24T03:00:38;8.75;;;7.45;;
54517;SDS011;40423;53.176;6.002;2023-04-24T03:03:04;11.48;;;8.15;;
54517;SDS011;40423;53.176;6.002;2023-04-24T03:05:30;9.30;;;7.80;;
54517;SDS011;40423;53.176;6.002;2023-04-24T03:07:56;8.70;;;7.80;;
54517;SDS011;40423;53.176;6.002;2023-04-24T03:10:22;10.27;;;7.65;;
54517;SDS011;40423;53.176;6.002;2023-04-24T03:12:48;10.23;;;8.25;;
54517;SDS011;40423;53.176;6.002;2023-04-24T03:15:14;10.48;;;9.38;;
54517;SDS011;40423;53.176;6.002;2023-04-24T03:17:39;11.80;;;8.15;;
54517;SDS011;40423;53.176;6.002;2023-04-24T03:20:06;9.75;;;8.48;;
54517;SDS011;40423;53.176;6.002;2023-04-24T03:22:33;6.07;;;4.68;;
54517;SDS011;40423;53.176;6.002;2023-04-24T03:25:00;5.30;;;4.05;;
54517;SDS011;40423;53.176;6.002;2023-04-24T03:27:26;6.70;;;3.80;;
54517;SDS011;40423;53.176;6.002;2023-04-24T03:29:51;4.68;;;3.05;;
54517;SDS011;40423;53.176;6.002;2023-04-24T03:32:20;3.50;;;2.88;;
54517;SDS011;40423;53.176;6.002;2023-04-24T03:34:47;4.93;;;2.90;;
54517;SDS011;40423;53.176;6.002;2023-04-24T03:37:16;3.47;;;2.30;;
54517;SDS011;40423;53.176;6.002;2023-04-24T03:39:42;2.40;;;1.90;;
54517;SDS011;40423;53.176;6.002;2023-04-24T03:42:08;3.88;;;1.73;;
54517;SDS011;40423;53.176;6.002;2023-04-24T03:44:34;2.97;;;1.73;;
54517;SDS011;40423;53.176;6.002;2023-04-24T03:47:00;3.10;;;1.90;;
54517;SDS011;40423;53.176;6.002;2023-04-24T03:49:26;2.55;;;1.83;;
54517;SDS011;40423;53.176;6.002;2023-04-24T03:51:52;3.53;;;2.28;;
54517;SDS011;40423;53.176;6.002;2023-04-24T03:54:18;3.97;;;1.77;;
54517;SDS011;40423;53.176;6.002;2023-04-24T03:56:44;4.97;;;1.83;;
54517;SDS011;40423;53.176;6.002;2023-04-24T03:59:10;3.28;;;1.90;;
54517;SDS011;40423;53.176;6.002;2023-04-24T04:01:36;2.88;;;1.60;;
54517;SDS011;40423;53.176;6.002;2023-04-24T04:04:02;2.90;;;1.77;;
54517;SDS011;40423;53.176;6.002;2023-04-24T04:06:29;2.72;;;2.00;;
54517;SDS011;40423;53.176;6.002;2023-04-24T04:08:56;3.75;;;2.30;;
54517;SDS011;40423;53.176;6.002;2023-04-24T04:11:22;5.35;;;2.90;;
54517;SDS011;40423;53.176;6.002;2023-04-24T04:13:48;3.60;;;3.20;;
54517;SDS011;40423;53.176;6.002;2023-04-24T04:16:14;5.40;;;2.60;;
54517;SDS011;40423;53.176;6.002;2023-04-24T04:18:42;6.35;;;3.35;;
54517;SDS011;40423;53.176;6.002;2023-04-24T04:21:08;4.95;;;3.50;;
54517;SDS011;40423;53.176;6.002;2023-04-24T04:23:33;3.25;;;2.85;;
54517;SDS011;40423;53.176;6.002;2023-04-24T04:25:59;5.43;;;3.20;;
54517;SDS011;40423;53.176;6.002;2023-04-24T04:28:26;3.97;;;2.85;;
54517;SDS011;40423;53.176;6.002;2023-04-24T04:30:52;5.28;;;3.15;;
54517;SDS011;40423;53.176;6.002;2023-04-24T04:33:21;6.60;;;2.80;;
54517;SDS011;40423;53.176;6.002;2023-04-24T04:35:47;4.03;;;2.88;;
54517;SDS011;40423;53.176;6.002;2023-04-24T04:38:21;7.28;;;3.80;;
54517;SDS011;40423;53.176;6.002;2023-04-24T04:40:48;7.60;;;4.40;;
54517;SDS011;40423;53.176;6.002;2023-04-24T04:43:14;8.27;;;4.97;;
54517;SDS011;40423;53.176;6.002;2023-04-24T04:45:42;7.20;;;5.45;;
54517;SDS011;40423;53.176;6.002;2023-04-24T04:48:08;8.45;;;5.40;;
54517;SDS011;40423;53.176;6.002;2023-04-24T04:50:37;8.98;;;6.07;;
54517;SDS011;40423;53.176;6.002;2023-04-24T04:53:03;12.57;;;5.45;;
54517;SDS011;40423;53.176;6.002;2023-04-24T04:55:29;9.35;;;5.78;;
54517;SDS011;40423;53.176;6.002;2023-04-24T04:57:55;10.55;;;6.90;;
54517;SDS011;40423;53.176;6.002;2023-04-24T05:00:21;8.18;;;5.90;;
54517;SDS011;40423;53.176;6.002;2023-04-24T05:02:48;10.73;;;6.40;;
54517;SDS011;40423;53.176;6.002;2023-04-24T05:05:14;10.40;;;6.63;;
54517;SDS011;40423;53.176;6.002;2023-04-24T05:07:42;8.75;;;6.10;;
54517;SDS011;40423;53.176;6.002;2023-04-24T05:10:07;8.52;;;5.70;;
54517;SDS011;40423;53.176;6.002;2023-04-24T05:12:34;9.48;;;5.80;;
54517;SDS011;40423;53.176;6.002;2023-04-24T05:14:59;10.82;;;6.53;;
54517;SDS011;40423;53.176;6.002;2023-04-24T05:17:25;9.60;;;6.82;;
54517;SDS011;40423;53.176;6.002;2023-04-24T05:19:51;10.50;;;7.28;;
54517;SDS011;40423;53.176;6.002;2023-04-24T05:22:17;13.68;;;7.10;;
54517;SDS011;40423;53.176;6.002;2023-04-24T05:24:45;12.13;;;7.85;;
54517;SDS011;40423;53.176;6.002;2023-04-24T05:27:12;13.55;;;8.50;;
54517;SDS011;40423;53.176;6.002;2023-04-24T05:29:37;10.45;;;6.93;;
54517;SDS011;40423;53.176;6.002;2023-04-24T05:32:03;9.10;;;6.15;;
54517;SDS011;40423;53.176;6.002;2023-04-24T05:34:29;9.70;;;6.82;;
54517;SDS011;40423;53.176;6.002;2023-04-24T05:36:55;8.75;;;5.82;;
54517;SDS011;40423;53.176;6.002;2023-04-24T05:39:21;10.60;;;5.13;;
54517;SDS011;40423;53.176;6.002;2023-04-24T05:41:47;7.47;;;5.07;;
54517;SDS011;40423;53.176;6.002;2023-04-24T05:44:12;7.60;;;4.68;;
54517;SDS011;40423;53.176;6.002;2023-04-24T05:46:38;8.05;;;5.05;;
54517;SDS011;40423;53.176;6.002;2023-04-24T05:49:04;11.35;;;5.53;;
54517;SDS011;40423;53.176;6.002;2023-04-24T05:51:30;6.13;;;4.95;;
54517;SDS011;40423;53.176;6.002;2023-04-24T05:53:56;7.75;;;4.28;;
54517;SDS011;40423;53.176;6.002;2023-04-24T05:56:22;6.00;;;3.95;;
54517;SDS011;40423;53.176;6.002;2023-04-24T05:58:48;8.05;;;3.67;;
54517;SDS011;40423;53.176;6.002;2023-04-24T06:01:14;8.02;;;2.90;;
54517;SDS011;40423;53.176;6.002;2023-04-24T06:03:41;6.95;;;2.70;;
54517;SDS011;40423;53.176;6.002;2023-04-24T06:06:07;4.65;;;2.90;;
54517;SDS011;40423;53.176;6.002;2023-04-24T06:08:33;5.15;;;2.40;;
54517;SDS011;40423;53.176;6.002;2023-04-24T06:11:02;6.65;;;2.22;;
54517;SDS011;40423;53.176;6.002;2023-04-24T06:13:28;5.72;;;2.03;;
54517;SDS011;40423;53.176;6.002;2023-04-24T06:15:53;6.82;;;2.15;;
54517;SDS011;40423;53.176;6.002;2023-04-24T06:18:19;4.93;;;1.70;;
54517;SDS011;40423;53.176;6.002;2023-04-24T06:20:45;6.38;;;1.88;;
54517;SDS011;40423;53.176;6.002;2023-04-24T06:23:11;2.97;;;2.05;;
54517;SDS011;40423;53.176;6.002;2023-04-24T06:25:37;4.47;;;2.70;;
54517;SDS011;40423;53.176;6.002;2023-04-24T06:28:03;6.00;;;2.80;;
54517;SDS011;40423;53.176;6.002;2023-04-24T06:30:30;7.15;;;2.17;;
54517;SDS011;40423;53.176;6.002;2023-04-24T06:32:56;5.82;;;2.85;;
54517;SDS011;40423;53.176;6.002;2023-04-24T06:35:22;4.55;;;2.75;;
54517;SDS011;40423;53.176;6.002;2023-04-24T06:37:50;8.77;;;3.35;;
54517;SDS011;40423;53.176;6.002;2023-04-24T06:40:21;6.05;;;3.50;;
54517;SDS011;40423;53.176;6.002;2023-04-24T06:42:47;5.80;;;3.30;;
54517;SDS011;40423;53.176;6.002;2023-04-24T06:45:13;5.68;;;3.22;;
54517;SDS011;40423;53.176;6.002;2023-04-24T06:47:38;6.90;;;3.05;;
54517;SDS011;40423;53.176;6.002;2023-04-24T06:50:04;6.05;;;3.10;;
54517;SDS011;40423;53.176;6.002;2023-04-24T06:52:31;8.48;;;3.72;;
54517;SDS011;40423;53.176;6.002;2023-04-24T06:55:00;8.55;;;4.13;;
54517;SDS011;40423;53.176;6.002;2023-04-24T06:57:27;10.52;;;4.70;;
54517;SDS011;40423;53.176;6.002;2023-04-24T06:59:53;9.88;;;5.97;;
54517;SDS011;40423;53.176;6.002;2023-04-24T07:02:19;12.70;;;6.53;;
54517;SDS011;40423;53.176;6.002;2023-04-24T07:04:45;13.90;;;8.02;;
54517;SDS011;40423;53.176;6.002;2023-04-24T07:07:12;17.30;;;9.55;;
54517;SDS011;40423;53.176;6.002;2023-04-24T07:09:39;16.52;;;9.48;;
54517;SDS011;40423;53.176;6.002;2023-04-24T07:12:07;19.05;;;12.45;;
54517;SDS011;40423;53.176;6.002;2023-04-24T07:14:33;20.23;;;12.48;;
54517;SDS011;40423;53.176;6.002;2023-04-24T07:16:59;17.88;;;10.43;;
54517;SDS011;40423;53.176;6.002;2023-04-24T07:19:26;18.15;;;11.98;;
54517;SDS011;40423;53.176;6.002;2023-04-24T07:21:51;18.35;;;12.35;;
54517;SDS011;40423;53.176;6.002;2023-04-24T07:24:18;26.35;;;12.98;;
54517;SDS011;40423;53.176;6.002;2023-04-24T07:26:44;20.35;;;11.57;;
54517;SDS011;40423;53.176;6.002;2023-04-24T07:29:12;16.83;;;11.05;;
54517;SDS011;40423;53.176;6.002;2023-04-24T07:31:39;19.67;;;10.77;;
54517;SDS011;40423;53.176;6.002;2023-04-24T07:34:06;17.42;;;10.48;;
54517;SDS011;40423;53.176;6.002;2023-04-24T07:36:32;14.63;;;10.55;;
54517;SDS011;40423;53.176;6.002;2023-04-24T07:38:57;18.60;;;12.27;;
54517;SDS011;40423;53.176;6.002;2023-04-24T07:41:23;21.23;;;12.82;;
54517;SDS011;40423;53.176;6.002;2023-04-24T07:43:49;25.60;;;14.50;;
54517;SDS011;40423;53.176;6.002;2023-04-24T07:46:15;19.75;;;13.65;;
54517;SDS011;40423;53.176;6.002;2023-04-24T07:48:41;23.55;;;13.50;;
54517;SDS011;40423;53.176;6.002;2023-04-24T07:51:07;20.55;;;13.02;;
54517;SDS011;40423;53.176;6.002;2023-04-24T07:53:35;22.23;;;14.90;;
54517;SDS011;40423;53.176;6.002;2023-04-24T07:56:00;24.73;;;13.77;;
54517;SDS011;40423;53.176;6.002;2023-04-24T07:58:26;20.08;;;12.60;;
54517;SDS011;40423;53.176;6.002;2023-04-24T08:00:52;21.05;;;13.95;;
54517;SDS011;40423;53.176;6.002;2023-04-24T08:03:17;20.48;;;12.40;;
54517;SDS011;40423;53.176;6.002;2023-04-24T08:05:44;21.48;;;11.88;;
54517;SDS011;40423;53.176;6.002;2023-04-24T08:08:11;18.20;;;11.27;;
54517;SDS011;40423;53.176;6.002;2023-04-24T08:10:36;18.25;;;10.85;;
54517;SDS011;40423;53.176;6.002;2023-04-24T08:13:02;13.80;;;10.32;;
54517;SDS011;40423;53.176;6.002;2023-04-24T08:15:28;16.23;;;9.60;;
54517;SDS011;40423;53.176;6.002;2023-04-24T08:17:54;13.27;;;8.77;;
54517;SDS011;40423;53.176;6.002;2023-04-24T08:20:22;15.48;;;8.10;;
54517;SDS011;40423;53.176;6.002;2023-04-24T08:22:47;15.55;;;8.85;;
54517;SDS011;40423;53.176;6.002;2023-04-24T08:25:14;14.00;;;7.70;;
54517;SDS011;40423;53.176;6.002;2023-04-24T08:27:39;13.75;;;7.60;;
54517;SDS011;40423;53.176;6.002;2023-04-24T08:30:06;11.05;;;7.55;;
54517;SDS011;40423;53.176;6.002;2023-04-24T08:32:32;9.65;;;6.82;;
54517;SDS011;40423;53.176;6.002;2023-04-24T08:34:59;12.90;;;6.72;;
54517;SDS011;40423;53.176;6.002;2023-04-24T08:37:25;11.40;;;6.35;;
54517;SDS011;40423;53.176;6.002;2023-04-24T08:39:52;14.30;;;7.30;;
54517;SDS011;40423;53.176;6.002;2023-04-24T08:42:19;15.02;;;6.85;;
54517;SDS011;40423;53.176;6.002;2023-04-24T08:44:46;13.55;;;7.60;;
54517;SDS011;40423;53.176;6.002;2023-04-24T08:47:13;13.52;;;7.47;;
54517;SDS011;40423;53.176;6.002;2023-04-24T08:49:40;17.67;;;7.85;;
54517;SDS011;40423;53.176;6.002;2023-04-24T08:52:07;13.73;;;7.45;;
54517;SDS011;40423;53.176;6.002;2023-04-24T08:54:34;16.05;;;7.32;;
54517;SDS011;40423;53.176;6.002;2023-04-24T08:57:01;22.05;;;7.45;;
54517;SDS011;40423;53.176;6.002;2023-04-24T08:59:31;12.98;;;6.97;;
54517;SDS011;40423;53.176;6.002;2023-04-24T09:01:57;19.33;;;6.72;;
54517;SDS011;40423;53.176;6.002;2023-04-24T09:04:23;16.58;;;6.47;;
54517;SDS011;40423;53.176;6.002;2023-04-24T09:06:56;11.93;;;5.95;;
54517;SDS011;40423;53.176;6.002;2023-04-24T09:09:23;12.07;;;5.20;;
54517;SDS011;40423;53.176;6.002;2023-04-24T09:11:50;10.20;;;4.00;;
54517;SDS011;40423;53.176;6.002;2023-04-24T09:14:19;15.30;;;4.60;;
54517;SDS011;40423;53.176;6.002;2023-04-24T09:16:46;12.55;;;4.07;;
54517;SDS011;40423;53.176;6.002;2023-04-24T09:19:12;10.68;;;4.10;;
54517;SDS011;40423;53.176;6.002;2023-04-24T09:21:38;13.98;;;4.22;;
54517;SDS011;40423;53.176;6.002;2023-04-24T09:24:08;15.27;;;4.95;;
54517;SDS011;40423;53.176;6.002;2023-04-24T09:26:43;13.32;;;4.03;;
54517;SDS011;40423;53.176;6.002;2023-04-24T09:29:19;13.57;;;4.80;;
54517;SDS011;40423;53.176;6.002;2023-04-24T09:31:45;9.90;;;4.40;;
54517;SDS011;40423;53.176;6.002;2023-04-24T09:34:11;14.05;;;4.35;;
54517;SDS011;40423;53.176;6.002;2023-04-24T09:36:39;13.98;;;4.18;;
54517;SDS011;40423;53.176;6.002;2023-04-24T09:39:07;13.25;;;4.25;;
54517;SDS011;40423;53.176;6.002;2023-04-24T09:41:43;12.35;;;3.92;;
54517;SDS011;40423;53.176;6.002;2023-04-24T09:44:18;12.77;;;3.72;;
54517;SDS011;40423;53.176;6.002;2023-04-24T09:46:51;9.85;;;3.05;;
54517;SDS011;40423;53.176;6.002;2023-04-24T09:49:23;16.08;;;3.53;;
54517;SDS011;40423;53.176;6.002;2023-04-24T09:52:10;7.88;;;2.78;;
54517;SDS011;40423;53.176;6.002;2023-04-24T09:54:37;13.60;;;3.65;;
54517;SDS011;40423;53.176;6.002;2023-04-24T09:57:03;11.90;;;3.15;;
54517;SDS011;40423;53.176;6.002;2023-04-24T09:59:30;10.80;;;3.25;;
54517;SDS011;40423;53.176;6.002;2023-04-24T10:01:56;11.73;;;3.08;;
54517;SDS011;40423;53.176;6.002;2023-04-24T10:04:24;12.55;;;2.83;;
54517;SDS011;40423;53.176;6.002;2023-04-24T10:06:55;12.05;;;2.72;;
54517;SDS011;40423;53.176;6.002;2023-04-24T10:09:22;7.30;;;2.63;;
54517;SDS011;40423;53.176;6.002;2023-04-24T10:11:50;9.25;;;2.95;;
54517;SDS011;40423;53.176;6.002;2023-04-24T10:14:20;10.27;;;3.13;;
54517;SDS011;40423;53.176;6.002;2023-04-24T10:16:47;8.10;;;2.78;;
54517;SDS011;40423;53.176;6.002;2023-04-24T10:19:15;8.13;;;2.13;;
54517;SDS011;40423;53.176;6.002;2023-04-24T10:21:43;11.80;;;2.20;;
54517;SDS011;40423;53.176;6.002;2023-04-24T10:24:13;11.40;;;2.47;;
54517;SDS011;40423;53.176;6.002;2023-04-24T10:26:40;8.32;;;2.40;;
54517;SDS011;40423;53.176;6.002;2023-04-24T10:29:06;11.00;;;2.67;;
54517;SDS011;40423;53.176;6.002;2023-04-24T10:31:37;10.68;;;2.50;;
54517;SDS011;40423;53.176;6.002;2023-04-24T10:34:07;9.20;;;2.28;;
54517;SDS011;40423;53.176;6.002;2023-04-24T10:36:34;5.53;;;1.98;;
54517;SDS011;40423;53.176;6.002;2023-04-24T10:39:05;10.18;;;2.28;;
54517;SDS011;40423;53.176;6.002;2023-04-24T10:41:33;10.70;;;2.53;;
54517;SDS011;40423;53.176;6.002;2023-04-24T10:44:09;7.57;;;2.42;;
54517;SDS011;40423;53.176;6.002;2023-04-24T10:46:38;11.00;;;2.20;;
54517;SDS011;40423;53.176;6.002;2023-04-24T10:49:07;8.18;;;2.05;;
54517;SDS011;40423;53.176;6.002;2023-04-24T10:59:51;9.60;;;1.65;;
54517;SDS011;40423;53.176;6.002;2023-04-24T11:02:36;5.35;;;1.55;;
54517;SDS011;40423;53.176;6.002;2023-04-24T11:05:03;7.10;;;2.28;;
54517;SDS011;40423;53.176;6.002;2023-04-24T11:07:29;5.93;;;1.60;;
54517;SDS011;40423;53.176;6.002;2023-04-24T11:10:25;5.85;;;1.60;;
54517;SDS011;40423;53.176;6.002;2023-04-24T11:12:53;14.18;;;1.80;;
54517;SDS011;40423;53.176;6.002;2023-04-24T11:15:19;6.25;;;1.55;;
54517;SDS011;40423;53.176;6.002;2023-04-24T11:17:45;6.28;;;1.70;;
54517;SDS011;40423;53.176;6.002;2023-04-24T11:20:11;8.15;;;1.88;;
54517;SDS011;40423;53.176;6.002;2023-04-24T11:22:42;10.43;;;1.60;;
54517;SDS011;40423;53.176;6.002;2023-04-24T11:25:09;4.38;;;1.30;;
54517;SDS011;40423;53.176;6.002;2023-04-24T11:27:40;5.88;;;2.03;;
54517;SDS011;40423;53.176;6.002;2023-04-24T11:30:16;6.80;;;1.92;;
54517;SDS011;40423;53.176;6.002;2023-04-24T11:32:46;8.75;;;1.98;;
54517;SDS011;40423;53.176;6.002;2023-04-24T11:35:14;9.30;;;1.80;;
54517;SDS011;40423;53.176;6.002;2023-04-24T11:37:42;8.68;;;1.70;;
54517;SDS011;40423;53.176;6.002;2023-04-24T11:40:11;6.53;;;1.70;;
54517;SDS011;40423;53.176;6.002;2023-04-24T11:42:39;4.90;;;1.52;;
54517;SDS011;40423;53.176;6.002;2023-04-24T11:45:09;6.07;;;1.15;;
54517;SDS011;40423;53.176;6.002;2023-04-24T11:47:40;5.35;;;1.58;;
54517;SDS011;40423;53.176;6.002;2023-04-24T11:50:07;6.65;;;1.23;;
54517;SDS011;40423;53.176;6.002;2023-04-24T11:52:38;7.15;;;1.48;;
54517;SDS011;40423;53.176;6.002;2023-04-24T11:55:24;5.10;;;1.10;;
54517;SDS011;40423;53.176;6.002;2023-04-24T11:57:55;6.10;;;1.80;;
54517;SDS011;40423;53.176;6.002;2023-04-24T12:00:24;5.00;;;1.20;;
54517;SDS011;40423;53.176;6.002;2023-04-24T12:03:04;5.55;;;1.30;;
54517;SDS011;40423;53.176;6.002;2023-04-24T12:05:32;6.68;;;1.30;;
54517;SDS011;40423;53.176;6.002;2023-04-24T12:07:58;7.57;;;1.42;;
54517;SDS011;40423;53.176;6.002;2023-04-24T12:10:25;11.25;;;1.52;;
54517;SDS011;40423;53.176;6.002;2023-04-24T12:12:55;6.57;;;0.90;;
54517;SDS011;40423;53.176;6.002;2023-04-24T12:15:22;7.40;;;1.10;;
54517;SDS011;40423;53.176;6.002;2023-04-24T12:17:50;7.40;;;1.10;;
54517;SDS011;40423;53.176;6.002;2023-04-24T12:20:20;9.88;;;1.23;;
54517;SDS011;40423;53.176;6.002;2023-04-24T12:22:57;7.55;;;1.30;;
54517;SDS011;40423;53.176;6.002;2023-04-24T12:25:25;9.60;;;1.67;;
54517;SDS011;40423;53.176;6.002;2023-04-24T12:30:30;4.55;;;1.10;;
54517;SDS011;40423;53.176;6.002;2023-04-24T12:32:58;7.07;;;1.20;;
54517;SDS011;40423;53.176;6.002;2023-04-24T12:35:26;2.50;;;1.00;;
54517;SDS011;40423;53.176;6.002;2023-04-24T12:37:53;3.85;;;0.95;;
54517;SDS011;40423;53.176;6.002;2023-04-24T12:40:20;4.82;;;1.15;;
54517;SDS011;40423;53.176;6.002;2023-04-24T12:42:47;3.08;;;0.80;;
54517;SDS011;40423;53.176;6.002;2023-04-24T12:45:17;3.83;;;0.77;;
54517;SDS011;40423;53.176;6.002;2023-04-24T12:47:44;6.15;;;1.52;;
54517;SDS011;40423;53.176;6.002;2023-04-24T12:50:11;4.25;;;0.90;;
54517;SDS011;40423;53.176;6.002;2023-04-24T12:52:38;5.47;;;1.73;;
54517;SDS011;40423;53.176;6.002;2023-04-24T12:55:06;4.60;;;1.30;;
54517;SDS011;40423;53.176;6.002;2023-04-24T12:57:36;5.57;;;1.23;;
54517;SDS011;40423;53.176;6.002;2023-04-24T13:00:06;6.28;;;1.08;;
54517;SDS011;40423;53.176;6.002;2023-04-24T13:02:33;7.60;;;1.50;;
54517;SDS011;40423;53.176;6.002;2023-04-24T13:04:59;4.22;;;1.08;;
54517;SDS011;40423;53.176;6.002;2023-04-24T13:07:26;5.40;;;1.00;;
54517;SDS011;40423;53.176;6.002;2023-04-24T13:09:52;6.30;;;2.03;;
54517;SDS011;40423;53.176;6.002;2023-04-24T13:12:19;4.90;;;0.90;;
54517;SDS011;40423;53.176;6.002;2023-04-24T13:14:45;2.80;;;0.90;;
54517;SDS011;40423;53.176;6.002;2023-04-24T13:17:11;3.90;;;1.10;;
54517;SDS011;40423;53.176;6.002;2023-04-24T13:19:41;8.68;;;1.30;;
54517;SDS011;40423;53.176;6.002;2023-04-24T13:22:08;7.68;;;1.33;;
54517;SDS011;40423;53.176;6.002;2023-04-24T13:24:35;8.00;;;1.60;;
54517;SDS011;40423;53.176;6.002;2023-04-24T13:27:02;11.93;;;2.63;;
54517;SDS011;40423;53.176;6.002;2023-04-24T13:29:28;8.48;;;2.45;;
54517;SDS011;40423;53.176;6.002;2023-04-24T13:31:54;12.57;;;2.33;;
54517;SDS011;40423;53.176;6.002;2023-04-24T13:34:22;7.68;;;2.22;;
54517;SDS011;40423;53.176;6.002;2023-04-24T13:36:49;15.32;;;2.88;;
54517;SDS011;40423;53.176;6.002;2023-04-24T13:39:19;12.65;;;3.28;;
54517;SDS011;40423;53.176;6.002;2023-04-24T13:41:45;17.08;;;2.70;;
54517;SDS011;40423;53.176;6.002;2023-04-24T13:44:13;14.15;;;2.45;;
54517;SDS011;40423;53.176;6.002;2023-04-24T13:46:43;8.55;;;3.10;;
54517;SDS011;40423;53.176;6.002;2023-04-24T13:49:10;9.27;;;2.72;;
54517;SDS011;40423;53.176;6.002;2023-04-24T13:51:37;10.77;;;3.22;;
54517;SDS011;40423;53.176;6.002;2023-04-24T13:54:03;7.50;;;1.85;;
54517;SDS011;40423;53.176;6.002;2023-04-24T13:56:29;5.65;;;1.92;;
54517;SDS011;40423;53.176;6.002;2023-04-24T13:58:55;12.18;;;1.95;;
54517;SDS011;40423;53.176;6.002;2023-04-24T14:01:21;5.18;;;1.50;;
54517;SDS011;40423;53.176;6.002;2023-04-24T14:03:51;7.72;;;1.88;;
54517;SDS011;40423;53.176;6.002;2023-04-24T14:06:21;10.57;;;2.60;;
54517;SDS011;40423;53.176;6.002;2023-04-24T14:08:48;8.05;;;2.30;;
54517;SDS011;40423;53.176;6.002;2023-04-24T14:11:15;11.90;;;2.75;;
54517;SDS011;40423;53.176;6.002;2023-04-24T14:13:42;9.40;;;2.80;;
54517;SDS011;40423;53.176;6.002;2023-04-24T14:16:09;15.85;;;3.60;;
54517;SDS011;40423;53.176;6.002;2023-04-24T14:18:35;9.93;;;2.83;;
54517;SDS011;40423;53.176;6.002;2023-04-24T14:21:02;16.15;;;3.35;;
54517;SDS011;40423;53.176;6.002;2023-04-24T14:23:28;12.55;;;3.10;;
54517;SDS011;40423;53.176;6.002;2023-04-24T14:25:54;10.73;;;3.13;;
54517;SDS011;40423;53.176;6.002;2023-04-24T14:28:19;11.85;;;3.22;;
54517;SDS011;40423;53.176;6.002;2023-04-24T14:30:46;9.00;;;3.08;;
54517;SDS011;40423;53.176;6.002;2023-04-24T14:33:13;12.88;;;3.33;;
54517;SDS011;40423;53.176;6.002;2023-04-24T14:35:42;10.35;;;3.38;;
54517;SDS011;40423;53.176;6.002;2023-04-24T14:38:08;18.10;;;4.85;;
54517;SDS011;40423;53.176;6.002;2023-04-24T14:40:34;11.02;;;3.22;;
54517;SDS011;40423;53.176;6.002;2023-04-24T14:43:00;14.02;;;4.47;;
54517;SDS011;40423;53.176;6.002;2023-04-24T14:45:26;17.65;;;4.22;;
54517;SDS011;40423;53.176;6.002;2023-04-24T14:47:52;15.77;;;4.05;;
54517;SDS011;40423;53.176;6.002;2023-04-24T14:50:18;15.63;;;4.40;;
54517;SDS011;40423;53.176;6.002;2023-04-24T14:52:44;15.05;;;4.68;;